Time;durP1;ratioP1;P1;durP2;ratioP2;P2;SDS_P1;SDS_P2;PMS_P1;PMS_P2;Temp;Humidity;BMP_temperature;BMP_pressure;BME280_temperature;BME280_humidity;BME280_pressure;Samples;Min_cycle;Max_cycle;Signal;HPM_P1;HPM_P2
2021/11/17 02:25:54;;;;;;;3.60;3.50;;;;;;;4.46;100.00;101627.88;4410942;32;20071;-71
2021/11/17 02:28:45;;;;;;;3.40;3.20;;;;;;;4.40;100.00;101611.47;4391276;32;20072;-72
2021/11/17 02:31:22;;;;;;;3.30;3.20;;;;;;;4.50;100.00;101617.41;4402539;32;20085;-71
2021/11/17 02:34:20;;;;;;;5.47;5.28;;;;;;;4.54;100.00;101610.44;4386135;32;20078;-73
2021/11/17 02:36:55;;;;;;;4.93;4.72;;;;;;;4.52;100.00;101615.66;4368949;32;20107;-74
2021/11/17 02:39:53;;;;;;;16.42;15.63;;;;;;;4.55;100.00;101610.44;4379978;32;20360;-75
2021/11/17 02:42:27;;;;;;;3.20;3.10;;;;;;;4.56;100.00;101611.28;4361537;32;20087;-74
2021/11/17 02:45:21;;;;;;;4.30;4.10;;;;;;;3.23;100.00;101416.28;4397656;32;20434;-73
2021/11/17 02:47:56;;;;;;;4.87;4.68;;;;;;;3.91;100.00;101495.16;4404970;32;20111;-72
2021/11/17 02:50:34;;;;;;;4.93;4.72;;;;;;;4.57;100.00;101600.88;4393294;32;20263;-73
2021/11/17 02:53:12;;;;;;;3.62;3.42;;;;;;;4.57;100.00;101603.47;4398047;32;20095;-72
2021/11/17 02:56:15;;;;;;;3.20;3.10;;;;;;;4.57;100.00;101605.19;4408436;32;20712;-75
2021/11/17 02:59:12;;;;;;;4.20;4.03;;;;;;;4.59;100.00;101595.63;4407333;32;20104;-72
2021/11/17 03:01:44;;;;;;;3.87;3.67;;;;;;;4.55;100.00;101594.84;4396949;32;20084;-72
2021/11/17 03:04:32;;;;;;;3.67;3.47;;;;;;;4.55;100.00;101591.34;4403259;32;20909;-72
2021/11/17 03:07:07;;;;;;;3.58;3.45;;;;;;;4.56;100.00;101601.75;4401697;32;21165;-74
2021/11/17 03:10:04;;;;;;;3.65;3.45;;;;;;;4.56;100.00;101593.09;4405416;32;20176;-73
2021/11/17 03:12:41;;;;;;;3.28;3.17;;;;;;;4.54;100.00;101587.91;4395388;32;20130;-72
2021/11/17 03:15:25;;;;;;;3.30;3.20;;;;;;;4.55;100.00;101584.44;4393147;32;20072;-72
2021/11/17 03:18:15;;;;;;;5.70;5.47;;;;;;;4.58;100.00;101586.13;4405000;32;20737;-73
2021/11/17 03:20:46;;;;;;;4.65;4.45;;;;;;;4.59;100.00;101582.63;4401840;32;20087;-75
2021/11/17 03:23:30;;;;;;;4.10;3.90;;;;;;;4.59;100.00;101585.22;4389642;32;20088;-72
2021/11/17 03:26:20;;;;;;;4.18;3.97;;;;;;;4.61;100.00;101586.09;4387617;32;20084;-72
2021/11/17 03:29:18;;;;;;;5.45;5.20;;;;;;;4.63;100.00;101593.84;4408095;32;20129;-75
2021/11/17 03:31:46;;;;;;;4.53;4.32;;;;;;;4.65;100.00;101590.38;4389616;32;20049;-74
2021/11/17 03:34:42;;;;;;;3.50;3.40;;;;;;;4.62;100.00;101587.81;4391132;32;20086;-73
2021/11/17 03:37:20;;;;;;;4.60;4.10;;;;;;;4.65;100.00;101600.78;4372068;32;20575;-72
2021/11/17 03:40:20;;;;;;;4.75;4.55;;;;;;;4.62;100.00;101607.75;4403879;32;20582;-73
2021/11/17 03:43:05;;;;;;;4.62;4.43;;;;;;;4.64;100.00;101600.78;4385526;32;20246;-72
2021/11/17 03:45:49;;;;;;;3.20;3.10;;;;;;;4.65;100.00;101600.78;4409121;32;20080;-73
2021/11/17 03:48:45;;;;;;;3.40;3.30;;;;;;;4.50;100.00;101587.97;4404190;32;20203;-73
2021/11/17 03:51:32;;;;;;;5.15;4.95;;;;;;;3.29;100.00;101380.78;4407860;32;20069;-72
2021/11/17 03:54:00;;;;;;;3.50;3.40;;;;;;;3.32;100.00;101383.34;4396206;32;20749;-72
2021/11/17 03:56:44;;;;;;;3.10;3.00;;;;;;;4.66;100.00;101599.03;4400609;32;20092;-73
2021/11/17 03:59:22;;;;;;;3.30;3.20;;;;;;;4.67;100.00;101605.94;4377054;32;20174;-73
2021/11/17 04:01:59;;;;;;;4.97;4.78;;;;;;;4.69;100.00;101612.84;4373168;32;20336;-73
2021/11/17 04:04:37;;;;;;;3.22;3.12;;;;;;;4.71;100.00;101608.50;4398416;32;20192;-74
2021/11/17 04:07:24;;;;;;;3.72;3.45;;;;;;;4.70;100.00;101614.56;4389118;32;20127;-73
2021/11/17 04:09:55;;;;;;;4.60;4.40;;;;;;;4.72;100.00;101614.56;4391674;32;20577;-72
2021/11/17 04:12:30;;;;;;;3.65;3.55;;;;;;;4.73;100.00;101616.25;4396244;32;20805;-72
2021/11/17 04:15:07;;;;;;;4.60;4.40;;;;;;;4.74;100.00;101613.63;4394489;32;20076;-73
2021/11/17 04:17:55;;;;;;;3.50;3.40;;;;;;;4.76;100.00;101613.63;4396331;32;20068;-73
2021/11/17 04:20:45;;;;;;;3.50;3.40;;;;;;;4.79;100.00;101616.16;4408636;32;20089;-73
2021/11/17 04:23:44;;;;;;;3.50;3.40;;;;;;;3.40;100.00;101376.31;4394842;32;20087;-72
2021/11/17 04:26:17;;;;;;;3.50;3.40;;;;;;;4.80;100.00;101634.34;4392905;32;20212;-73
2021/11/17 04:29:03;;;;;;;5.00;4.65;;;;;;;4.72;100.00;101651.81;4400238;32;20120;-73
2021/11/17 04:31:57;;;;;;;3.30;3.20;;;;;;;4.72;100.00;101641.41;4407201;32;20073;-71
2021/11/17 04:34:36;;;;;;;3.30;3.20;;;;;;;4.75;100.00;101637.91;4397205;32;20073;-73
2021/11/17 04:37:40;;;;;;;3.53;3.42;;;;;;;4.77;100.00;101646.53;4404849;32;20077;-71
2021/11/17 04:40:32;;;;;;;3.50;3.40;;;;;;;4.78;100.00;101675.13;4394446;32;20138;-71
2021/11/17 04:43:16;;;;;;;3.40;3.30;;;;;;;4.82;100.00;101646.50;4389679;32;20352;-72
2021/11/17 04:46:02;;;;;;;4.47;4.28;;;;;;;4.83;100.00;101641.28;4404380;32;20543;-73
2021/11/17 04:48:43;;;;;;;3.47;3.37;;;;;;;4.86;100.00;101642.97;4410460;32;20411;-70
2021/11/17 04:51:40;;;;;;;3.97;3.78;;;;;;;4.72;100.00;101625.81;4411060;32;20527;-69
2021/11/17 04:54:12;;;;;;;3.42;3.33;;;;;;;4.86;100.00;101659.44;4376070;32;20089;-69
2021/11/17 04:56:56;;;;;;;3.45;3.35;;;;;;;4.80;100.00;101694.19;4394384;32;20058;-75
2021/11/17 04:59:44;;;;;;;3.35;3.25;;;;;;;4.70;100.00;101648.38;4407015;32;20598;-73
2021/11/17 05:02:18;;;;;;;3.30;3.20;;;;;;;4.83;100.00;101662.09;4392454;32;20688;-73
2021/11/17 05:04:43;;;;;;;5.03;4.62;;;;;;;4.84;100.00;101650.78;4403312;32;20151;-74
2021/11/17 05:07:24;;;;;;;3.30;3.20;;;;;;;4.88;100.00;101649.88;4407091;32;20085;-73
2021/11/17 05:10:07;;;;;;;5.53;5.12;;;;;;;4.89;100.00;101655.91;4393030;32;20614;-72
2021/11/17 05:12:59;;;;;;;3.62;3.47;;;;;;;4.91;100.00;101655.03;4406639;32;20057;-73
2021/11/17 05:15:48;;;;;;;3.20;3.10;;;;;;;4.93;100.00;101647.19;4367737;32;20150;-73
2021/11/17 05:18:36;;;;;;;3.33;3.22;;;;;;;4.93;100.00;101640.28;4408685;32;20570;-73
2021/11/17 05:21:32;;;;;;;3.50;3.40;;;;;;;4.94;100.00;101628.12;4402373;32;20074;-73
2021/11/17 05:24:13;;;;;;;3.40;3.30;;;;;;;4.95;100.00;101635.03;4400047;32;20080;-73
2021/11/17 05:26:48;;;;;;;3.45;3.35;;;;;;;4.90;100.00;101642.06;4417353;32;20068;-75
2021/11/17 05:29:38;;;;;;;3.17;3.08;;;;;;;4.90;100.00;101647.25;4398379;32;20973;-74
2021/11/17 05:32:28;;;;;;;3.95;3.72;;;;;;;4.90;100.00;101642.06;4404076;32;20069;-74
2021/11/17 05:35:20;;;;;;;4.12;3.92;;;;;;;4.87;100.00;101637.75;4407252;32;20105;-74
2021/11/17 05:38:10;;;;;;;4.90;4.70;;;;;;;4.80;100.00;101638.72;4392159;32;20065;-74
2021/11/17 05:40:38;;;;;;;3.50;3.40;;;;;;;4.80;100.00;101626.56;4392568;32;20069;-74
2021/11/17 05:43:32;;;;;;;3.60;3.50;;;;;;;4.82;100.00;101618.75;4410500;32;20158;-75
2021/11/17 05:46:15;;;;;;;4.20;4.00;;;;;;;4.78;100.00;101635.28;4408661;32;20470;-75
2021/11/17 05:48:53;;;;;;;3.20;3.10;;;;;;;4.75;100.00;101649.19;4399119;32;20085;-74
2021/11/17 05:51:43;;;;;;;3.72;3.53;;;;;;;4.65;100.00;101623.28;4407970;32;20073;-73
2021/11/17 05:54:50;;;;;;;3.53;3.42;;;;;;;4.78;100.00;101653.47;4402279;32;20082;-72
2021/11/17 05:57:31;;;;;;;3.92;3.65;;;;;;;4.76;100.00;101653.47;4395750;32;20089;-73
2021/11/17 06:00:15;;;;;;;4.50;4.30;;;;;;;4.78;100.00;101635.28;4402100;32;20915;-73
2021/11/17 06:03:02;;;;;;;3.97;3.83;;;;;;;4.81;100.00;101637.81;4399550;32;20109;-73
2021/11/17 06:05:27;;;;;;;3.10;3.00;;;;;;;4.83;100.00;101632.59;4366076;32;20068;-72
2021/11/17 06:07:52;;;;;;;4.62;4.43;;;;;;;4.83;100.00;101624.78;4405764;32;20418;-72
2021/11/17 06:10:21;;;;;;;3.40;3.30;;;;;;;4.84;100.00;101623.94;4403963;32;20076;-73
2021/11/17 06:12:46;;;;;;;4.45;4.25;;;;;;;4.79;100.00;101622.25;4382500;32;20421;-73
2021/11/17 06:15:13;;;;;;;3.60;3.50;;;;;;;4.77;100.00;101616.22;4382572;32;20625;-72
2021/11/17 06:17:39;;;;;;;3.70;3.55;;;;;;;4.66;100.00;101589.47;4398891;32;20076;-74
2021/11/17 06:20:05;;;;;;;3.65;3.55;;;;;;;4.73;100.00;101585.06;4363114;32;20584;-72
2021/11/17 06:22:31;;;;;;;3.40;3.30;;;;;;;4.72;100.00;101570.34;4366072;32;20092;-73
2021/11/17 06:24:58;;;;;;;4.37;4.18;;;;;;;3.58;100.00;101379.59;4379475;32;20181;-72
2021/11/17 06:27:28;;;;;;;3.35;3.25;;;;;;;3.54;100.00;101391.72;4389994;32;21239;-72
2021/11/17 06:29:57;;;;;;;4.75;4.55;;;;;;;4.66;100.00;101579.09;4370435;32;20983;-73
2021/11/17 06:32:23;;;;;;;3.65;3.50;;;;;;;4.62;100.00;101577.41;4385816;32;20084;-72
2021/11/17 06:34:50;;;;;;;5.10;4.90;;;;;;;4.80;100.00;101604.91;4365459;32;20077;-73
2021/11/17 06:37:17;;;;;;;3.40;3.30;;;;;;;4.82;100.00;101610.94;4387248;32;20203;-72
2021/11/17 06:39:45;;;;;;;4.70;4.50;;;;;;;4.80;100.00;101617.91;4386040;32;20069;-72
2021/11/17 06:42:18;;;;;;;3.40;3.30;;;;;;;4.78;100.00;101619.66;4386630;32;20594;-73
2021/11/17 06:44:44;;;;;;;4.75;4.55;;;;;;;4.70;100.00;101601.56;4374430;32;20061;-72
2021/11/17 06:47:10;;;;;;;3.50;3.40;;;;;;;4.76;100.00;101619.69;4381932;32;20084;-73
2021/11/17 06:49:36;;;;;;;3.15;3.05;;;;;;;4.72;100.00;101623.19;4385904;32;20458;-74
2021/11/17 06:52:02;;;;;;;3.17;3.08;;;;;;;4.82;100.00;101621.34;4368773;32;20134;-73
2021/11/17 06:54:27;;;;;;;3.70;3.50;;;;;;;4.85;100.00;101630.84;4369817;32;20629;-74
2021/11/17 06:56:53;;;;;;;5.28;5.07;;;;;;;4.73;100.00;101617.13;4366001;32;20088;-72
2021/11/17 06:59:18;;;;;;;3.40;3.30;;;;;;;4.91;100.00;101621.22;4379273;32;20363;-73
2021/11/17 07:01:43;;;;;;;4.43;4.22;;;;;;;4.94;100.00;101630.72;4376163;32;20061;-73
2021/11/17 07:04:09;;;;;;;4.43;4.12;;;;;;;4.96;100.00;101628.97;4379054;32;20776;-74
2021/11/17 07:06:34;;;;;;;3.25;3.15;;;;;;;4.98;100.00;101629.81;4362215;32;20092;-73
2021/11/17 07:09:00;;;;;;;3.55;3.45;;;;;;;5.00;100.00;101630.63;4365319;32;20760;-73
2021/11/17 07:11:25;;;;;;;3.40;3.30;;;;;;;5.03;100.00;101638.38;4394936;32;20566;-73
2021/11/17 07:13:51;;;;;;;4.70;4.50;;;;;;;5.05;100.00;101641.84;4366231;32;20069;-75
2021/11/17 07:16:16;;;;;;;3.37;3.28;;;;;;;5.07;100.00;101634.00;4387774;32;20600;-73
2021/11/17 07:18:41;;;;;;;4.07;3.90;;;;;;;5.06;100.00;101634.91;4368993;32;20069;-75
2021/11/17 07:21:07;;;;;;;4.15;3.95;;;;;;;5.09;100.00;101625.31;4381741;32;20960;-73
2021/11/17 07:23:32;;;;;;;4.12;3.92;;;;;;;5.15;100.00;101627.81;4370013;32;20139;-73
2021/11/17 07:25:58;;;;;;;3.30;3.20;;;;;;;4.69;100.00;101550.47;4375359;32;20083;-73
2021/11/17 07:28:23;;;;;;;3.40;3.30;;;;;;;5.11;100.00;101620.94;4386656;32;20084;-73
2021/11/17 07:30:49;;;;;;;4.65;4.45;;;;;;;4.98;100.00;101596.84;4375654;32;20076;-73
2021/11/17 07:33:14;;;;;;;3.95;3.75;;;;;;;5.14;100.00;101620.03;4390240;32;20149;-74
2021/11/17 07:35:42;;;;;;;3.65;3.53;;;;;;;5.07;100.00;101603.66;4394041;32;20291;-75
2021/11/17 07:38:11;;;;;;;3.35;3.20;;;;;;;5.23;100.00;101627.69;4390290;32;20199;-74
2021/11/17 07:40:38;;;;;;;3.87;3.67;;;;;;;4.93;100.00;101576.97;4380670;32;20469;-75
2021/11/17 07:43:05;;;;;;;3.42;3.33;;;;;;;5.38;100.00;101652.62;4359813;32;20089;-74
2021/11/17 07:45:31;;;;;;;3.10;3.00;;;;;;;5.15;100.00;101603.53;4362731;32;20167;-73
2021/11/17 07:47:56;;;;;;;4.37;4.18;;;;;;;5.57;100.00;101661.88;4377570;32;20508;-73
2021/11/17 07:50:22;;;;;;;3.25;3.15;;;;;;;5.65;100.00;101666.09;4378277;32;20158;-73
2021/11/17 07:52:47;;;;;;;4.87;4.68;;;;;;;5.70;100.00;101666.91;4356777;32;20151;-73
2021/11/17 07:55:14;;;;;;;4.95;4.75;;;;;;;5.55;100.00;101624.59;4389706;32;20192;-73
2021/11/17 07:57:40;;;;;;;3.75;3.60;;;;;;;5.91;100.00;101658.72;4363356;32;20056;-73
2021/11/17 08:00:08;;;;;;;3.58;3.45;;;;;;;6.06;100.00;101665.44;4381760;32;20060;-73
2021/11/17 08:02:33;;;;;;;5.10;3.58;;;;;;;6.12;100.00;101673.16;4366182;32;20133;-73
2021/11/17 08:04:58;;;;;;;3.75;3.65;;;;;;;6.16;100.00;101682.62;4355728;32;20830;-75
2021/11/17 08:07:24;;;;;;;3.60;3.50;;;;;;;6.18;99.40;101672.19;4363767;32;20085;-73
2021/11/17 08:09:49;;;;;;;4.60;4.40;;;;;;;6.24;98.55;101677.28;4361152;32;20138;-73
2021/11/17 08:12:16;;;;;;;3.35;3.25;;;;;;;6.25;98.23;101678.97;4379807;32;20590;-74
2021/11/17 08:14:41;;;;;;;4.53;4.32;;;;;;;5.89;97.82;101626.59;4362502;32;20590;-74
2021/11/17 08:17:06;;;;;;;4.18;3.97;;;;;;;6.26;97.85;101680.72;4377214;32;20091;-73
2021/11/17 08:19:32;;;;;;;3.17;3.08;;;;;;;6.27;97.16;101678.97;4365822;32;20077;-72
2021/11/17 08:21:58;;;;;;;4.40;4.20;;;;;;;6.36;97.46;101677.03;4375315;32;20521;-75
2021/11/17 08:24:23;;;;;;;3.47;3.37;;;;;;;6.26;96.86;101675.50;4380431;32;20102;-73
2021/11/17 08:26:49;;;;;;;5.07;4.87;;;;;;;6.31;96.77;101675.41;4378082;32;20073;-73
2021/11/17 08:29:14;;;;;;;3.40;3.30;;;;;;;6.31;95.81;101673.66;4390973;32;20393;-73
2021/11/17 08:31:40;;;;;;;4.85;4.45;;;;;;;6.35;95.70;101667.53;4382498;32;20057;-75
2021/11/17 08:34:05;;;;;;;3.92;3.72;;;;;;;6.30;95.98;101671.94;4391970;32;20587;-72
2021/11/17 08:36:30;;;;;;;3.45;3.35;;;;;;;6.26;95.84;101674.66;4375980;32;20107;-70
2021/11/17 08:38:56;;;;;;;3.85;3.70;;;;;;;6.22;95.44;101686.88;4386685;32;20559;-70
2021/11/17 08:41:23;;;;;;;3.33;3.22;;;;;;;6.21;95.74;101666.88;4389624;32;20081;-74
2021/11/17 08:43:49;;;;;;;3.47;3.37;;;;;;;5.63;96.38;101593.19;4396313;32;20133;-72
2021/11/17 08:46:14;;;;;;;3.58;3.47;;;;;;;6.00;96.91;101662.94;4376142;32;20164;-70
2021/11/17 08:48:40;;;;;;;3.40;3.30;;;;;;;5.98;97.29;101659.50;4368123;32;20129;-70
2021/11/17 08:51:08;;;;;;;5.35;5.05;;;;;;;5.93;97.12;101656.06;4380800;32;20583;-70
2021/11/17 08:53:34;;;;;;;3.30;3.20;;;;;;;5.91;96.87;101669.16;4360167;32;20114;-70
2021/11/17 08:56:04;;;;;;;4.50;4.30;;;;;;;6.00;97.38;101657.72;4379721;32;20069;-70
2021/11/17 08:58:29;;;;;;;4.25;4.05;;;;;;;6.12;97.47;101672.28;4378595;32;20064;-70
2021/11/17 09:00:55;;;;;;;3.72;3.60;;;;;;;6.22;98.38;101666.03;4381167;32;20541;-72
2021/11/17 09:03:20;;;;;;;3.50;3.40;;;;;;;6.14;97.63;101639.25;4366067;32;20068;-72
2021/11/17 09:05:54;;;;;;;3.40;3.30;;;;;;;6.32;97.65;101659.75;4381770;32;20272;-72
2021/11/17 09:08:20;;;;;;;4.00;3.80;;;;;;;6.38;96.15;101675.25;4392116;32;20065;-72
2021/11/17 09:10:47;;;;;;;3.37;3.28;;;;;;;6.41;96.42;101671.72;4377983;32;20073;-71
2021/11/17 09:13:13;;;;;;;4.70;4.50;;;;;;;5.74;96.47;101556.56;4394523;32;20933;-72
2021/11/17 09:15:40;;;;;;;3.90;3.70;;;;;;;6.45;96.19;101680.34;4380362;32;20073;-72
2021/11/17 09:18:06;;;;;;;4.68;4.47;;;;;;;6.45;95.60;101669.94;4379829;32;20116;-72
2021/11/17 09:20:32;;;;;;;3.60;3.50;;;;;;;6.49;95.63;101682.88;4365490;32;20082;-72
2021/11/17 09:22:58;;;;;;;5.12;4.82;;;;;;;6.41;95.13;101665.66;4380900;32;20065;-71
2021/11/17 09:25:24;;;;;;;3.60;3.50;;;;;;;6.03;94.87;101596.88;4378866;32;20088;-75
2021/11/17 09:27:49;;;;;;;3.70;3.58;;;;;;;6.60;95.45;101685.28;4381219;32;20140;-73
2021/11/17 09:30:18;;;;;;;4.80;4.40;;;;;;;6.62;94.63;101693.94;4383043;32;20211;-73
2021/11/17 09:32:45;;;;;;;3.50;3.40;;;;;;;6.61;94.20;101691.34;4383716;32;20073;-75
2021/11/17 09:35:11;;;;;;;5.87;5.57;;;;;;;6.62;95.13;101687.87;4369524;32;20089;-76
2021/11/17 09:37:37;;;;;;;3.30;3.20;;;;;;;6.26;93.65;101631.19;4378540;32;20437;-77
2021/11/17 09:40:05;;;;;;;4.07;3.87;;;;;;;6.64;94.14;101692.16;4381295;32;20615;-76
2021/11/17 09:42:30;;;;;;;3.78;3.67;;;;;;;6.10;93.78;101609.75;4379832;32;20243;-77
2021/11/17 09:44:55;;;;;;;3.83;3.67;;;;;;;6.44;93.56;101666.47;4376867;32;20701;-75
2021/11/17 09:47:22;;;;;;;4.20;4.00;;;;;;;6.67;94.13;101704.28;4377318;32;20089;-73
2021/11/17 09:50:00;;;;;;;3.85;3.67;;;;;;;6.68;93.52;101704.25;4380410;32;20095;-73
2021/11/17 09:52:30;;;;;;;3.60;3.50;;;;;;;6.68;94.56;101704.25;4392828;32;20087;-69
2021/11/17 09:55:03;;;;;;;4.62;4.43;;;;;;;6.32;93.35;101653.69;4379669;32;20098;-69
2021/11/17 09:57:32;;;;;;;3.87;3.67;;;;;;;6.71;93.83;101698.97;4389120;32;20379;-69
2021/11/17 10:00:12;;;;;;;3.70;3.58;;;;;;;6.77;94.06;101701.44;4376417;32;20674;-69
2021/11/17 10:02:44;;;;;;;3.40;3.30;;;;;;;6.82;94.52;101696.16;4385861;32;20077;-72
2021/11/17 10:05:15;;;;;;;5.05;4.85;;;;;;;6.91;93.52;101687.25;4376579;32;20639;-72
2021/11/17 10:13:29;;;;;;;3.42;3.33;;;;;;;7.07;93.39;101691.25;4406490;32;20011;-70
2021/11/17 10:15:55;;;;;;;4.97;4.68;;;;;;;7.14;93.37;101692.84;4392568;32;20635;-72
2021/11/17 10:19:00;;;;;;;3.72;3.62;;;;;;;7.19;92.28;101706.66;4382152;32;20093;-73
2021/11/17 10:21:26;;;;;;;3.40;3.30;;;;;;;7.23;92.59;101709.22;4352792;32;20361;-73
2021/11/17 10:24:14;;;;;;;3.87;3.70;;;;;;;6.76;92.63;101644.94;4392261;32;20869;-74
2021/11/17 10:26:50;;;;;;;3.40;3.30;;;;;;;7.15;93.05;101718.06;4385277;32;20373;-72
2021/11/17 10:29:37;;;;;;;3.70;3.60;;;;;;;7.15;92.68;101731.09;4378480;32;20080;-72
2021/11/17 10:32:17;;;;;;;3.78;3.62;;;;;;;7.01;93.28;101719.25;4374841;32;20116;-73
2021/11/17 10:34:54;;;;;;;3.40;3.30;;;;;;;7.01;93.75;101721.84;4380105;32;20112;-72
2021/11/17 10:37:30;;;;;;;4.18;3.97;;;;;;;6.53;94.14;101642.81;4379145;32;20128;-72
2021/11/17 10:39:55;;;;;;;3.58;3.45;;;;;;;6.56;93.75;101628.88;4376768;32;20085;-76
2021/11/17 10:42:20;;;;;;;3.62;3.53;;;;;;;7.14;94.21;101698.06;4369384;32;20112;-74
2021/11/17 10:44:52;;;;;;;3.70;3.60;;;;;;;7.26;95.57;101693.50;4383432;32;20091;-72
2021/11/17 10:47:26;;;;;;;3.70;3.60;;;;;;;7.32;94.86;101703.78;4387102;32;20221;-74
2021/11/17 10:50:04;;;;;;;3.75;3.60;;;;;;;7.33;95.24;101716.78;4382124;32;20080;-75
2021/11/17 10:52:54;;;;;;;4.00;3.80;;;;;;;6.90;95.56;101649.88;4389392;32;20079;-72
2021/11/17 10:55:22;;;;;;;3.50;3.40;;;;;;;7.32;94.67;101722.91;4366292;32;20127;-72
2021/11/17 10:57:47;;;;;;;4.20;4.00;;;;;;;7.21;95.55;101697.94;4376554;32;21007;-74
2021/11/17 11:00:19;;;;;;;4.55;4.35;;;;;;;7.32;96.14;101712.47;4362138;32;20065;-73
2021/11/17 11:02:44;;;;;;;4.00;3.80;;;;;;;7.33;96.33;101713.31;4363058;32;20066;-74
2021/11/17 11:05:15;;;;;;;4.78;4.57;;;;;;;7.33;95.84;101714.19;4362240;32;20078;-73
2021/11/17 11:07:53;;;;;;;3.78;3.67;;;;;;;7.36;96.16;101713.28;4379082;32;20065;-73
2021/11/17 11:10:23;;;;;;;4.00;3.85;;;;;;;7.42;95.70;101715.75;4379018;32;20138;-75
2021/11/17 11:12:50;;;;;;;5.90;5.62;;;;;;;7.32;96.54;101707.25;4372608;32;20076;-72
2021/11/17 11:15:23;;;;;;;3.60;3.50;;;;;;;7.38;96.79;101712.34;4358860;32;20073;-73
2021/11/17 11:18:04;;;;;;;3.55;3.45;;;;;;;7.39;96.54;101710.56;4367152;32;20936;-73
2021/11/17 11:20:31;;;;;;;3.72;3.55;;;;;;;7.42;97.75;101710.53;4397638;32;20861;-73
2021/11/17 11:23:06;;;;;;;3.72;3.60;;;;;;;7.42;97.38;101714.87;4363168;32;20190;-72
2021/11/17 11:26:01;;;;;;;3.40;3.30;;;;;;;7.31;97.73;101687.25;4387064;32;20089;-71
2021/11/17 11:28:32;;;;;;;4.00;3.80;;;;;;;7.46;97.24;101708.72;4361721;32;20072;-71
2021/11/17 11:31:00;;;;;;;3.75;3.62;;;;;;;7.48;97.50;101704.31;4343216;32;20172;-71
2021/11/17 11:33:28;;;;;;;4.25;4.05;;;;;;;7.49;98.10;101704.25;4378907;32;20069;-71
2021/11/17 11:36:26;;;;;;;3.75;3.65;;;;;;;6.30;99.04;101499.03;4377162;32;20609;-71
2021/11/17 11:38:59;;;;;;;4.00;3.80;;;;;;;7.56;98.59;101699.75;4373271;32;20069;-72
2021/11/17 11:41:45;;;;;;;4.70;4.50;;;;;;;7.63;99.85;101708.28;4365437;32;20351;-75
2021/11/17 11:44:20;;;;;;;6.03;5.72;;;;;;;7.68;99.23;101703.84;4376105;32;20073;-74
2021/11/17 11:46:57;;;;;;;3.80;3.60;;;;;;;7.72;99.69;101708.09;4373248;32;20074;-74
2021/11/17 11:49:39;;;;;;;3.70;3.60;;;;;;;6.93;99.57;101581.94;4390493;32;20085;-71
2021/11/17 11:52:11;;;;;;;5.65;5.35;;;;;;;7.81;99.55;101702.62;4362807;32;20073;-73
2021/11/17 11:54:56;;;;;;;3.80;3.60;;;;;;;6.95;99.95;101561.91;4378839;32;20402;-71
2021/11/17 11:57:35;;;;;;;3.83;3.65;;;;;;;7.87;98.87;101702.47;4397271;32;20575;-72
2021/11/17 12:00:19;;;;;;;5.43;5.10;;;;;;;7.89;99.74;101705.91;4371110;32;20086;-73
2021/11/17 12:02:59;;;;;;;4.32;4.12;;;;;;;7.94;99.60;101705.81;4382570;32;20514;-71
2021/11/17 12:05:39;;;;;;;3.70;3.60;;;;;;;7.96;99.35;101697.03;4361607;32;20076;-72
2021/11/17 12:08:13;;;;;;;4.87;4.68;;;;;;;8.01;100.00;101701.28;4376662;32;20682;-75
2021/11/17 12:10:44;;;;;;;3.60;3.50;;;;;;;8.04;99.97;101706.41;4379933;32;20303;-73
2021/11/17 12:13:18;;;;;;;5.70;5.40;;;;;;;8.04;99.60;101703.78;4374764;32;20074;-72
2021/11/17 12:16:07;;;;;;;3.70;3.60;;;;;;;8.01;100.00;101706.50;4378190;32;20167;-72
2021/11/17 12:18:45;;;;;;;3.75;3.65;;;;;;;7.84;100.00;101678.16;4375296;32;20073;-75
2021/11/17 12:21:14;;;;;;;5.37;5.18;;;;;;;6.83;100.00;101512.59;4381174;32;20174;-75
2021/11/17 12:23:42;;;;;;;3.50;3.40;;;;;;;8.09;100.00;101707.16;4370010;32;20084;-73
2021/11/17 12:26:10;;;;;;;5.65;5.22;;;;;;;8.08;100.00;101698.47;4380452;32;20074;-73
2021/11/17 12:28:46;;;;;;;4.22;4.03;;;;;;;8.15;100.00;101700.00;4377967;32;20151;-72
2021/11/17 12:31:18;;;;;;;5.35;5.15;;;;;;;8.19;100.00;101690.34;4363081;32;20073;-73
2021/11/17 12:33:51;;;;;;;4.05;3.85;;;;;;;8.19;100.00;101691.19;4349122;32;20074;-71
2021/11/17 12:36:18;;;;;;;;;;;;;;;8.25;100.00;101703.25;4386162;32;20074;-73
2021/11/17 12:38:45;;;;;;;3.60;3.50;;;;;;;7.89;100.00;101634.50;4408881;32;20036;-72
2021/11/17 12:41:17;;;;;;;3.70;3.60;;;;;;;8.24;100.00;101698.94;4381948;32;20077;-72
2021/11/17 12:43:58;;;;;;;4.17;3.97;;;;;;;8.18;100.00;101713.03;4377852;32;20507;-72
2021/11/17 12:46:24;;;;;;;3.90;3.70;;;;;;;8.16;100.00;101712.19;4386637;32;20169;-73
2021/11/17 12:48:53;;;;;;;4.40;4.10;;;;;;;8.16;100.00;101709.59;4406269;32;20073;-73
2021/11/17 12:51:28;;;;;;;4.35;4.15;;;;;;;8.12;100.00;101714.94;4396422;32;20065;-72
2021/11/17 12:54:13;;;;;;;4.10;3.90;;;;;;;8.12;100.00;101721.03;4361440;32;20156;-75
2021/11/17 12:56:53;;;;;;;3.67;3.55;;;;;;;8.16;100.00;101721.81;4393002;32;20465;-72
2021/11/17 12:59:33;;;;;;;4.28;3.95;;;;;;;8.14;100.00;101723.59;4390723;32;20601;-72
2021/11/17 13:02:02;;;;;;;3.80;3.70;;;;;;;8.11;100.00;101727.12;4388026;32;20535;-73
2021/11/17 13:04:34;;;;;;;3.90;3.70;;;;;;;8.12;100.00;101730.62;4381275;32;20575;-73
2021/11/17 13:07:02;;;;;;;4.50;4.30;;;;;;;8.13;100.00;101727.97;4376053;32;20891;-72
2021/11/17 13:09:43;;;;;;;3.90;3.75;;;;;;;8.14;100.00;101724.47;4390807;32;20781;-73
2021/11/17 13:12:19;;;;;;;3.80;3.70;;;;;;;8.19;100.00;101724.34;4389516;32;20065;-72
2021/11/17 13:14:47;;;;;;;4.60;4.40;;;;;;;8.18;100.00;101725.25;4395578;32;20077;-72
2021/11/17 13:17:21;;;;;;;17.40;5.95;;;;;;;8.19;100.00;101719.09;4388135;32;20112;-72
2021/11/17 13:19:57;;;;;;;4.25;4.05;;;;;;;7.96;100.00;101683.97;4384452;32;20162;-72
2021/11/17 13:22:35;;;;;;;3.80;3.70;;;;;;;8.22;100.00;101726.88;4382645;32;20269;-70
2021/11/17 13:25:10;;;;;;;4.45;4.25;;;;;;;8.29;100.00;101723.19;4388884;32;20184;-70
2021/11/17 13:27:41;;;;;;;4.68;4.47;;;;;;;8.22;100.00;101726.00;4392853;32;20778;-70
2021/11/17 13:30:18;;;;;;;4.85;4.65;;;;;;;8.18;100.00;101727.84;4366451;32;20066;-71
2021/11/17 13:32:45;;;;;;;4.60;4.40;;;;;;;8.18;100.00;101717.41;4401860;32;20147;-70
2021/11/17 13:35:32;;;;;;;5.85;5.55;;;;;;;8.21;100.00;101733.00;4373884;32;20171;-71
2021/11/17 13:38:09;;;;;;;4.28;4.10;;;;;;;8.25;100.00;101726.78;4375709;32;20141;-69
2021/11/17 13:40:34;;;;;;;4.97;4.57;;;;;;;8.24;100.00;101730.31;4403324;32;20079;-69
2021/11/17 13:43:01;;;;;;;4.62;4.43;;;;;;;6.70;100.00;101459.88;4389647;32;20702;-74
2021/11/17 13:45:29;;;;;;;5.53;4.10;;;;;;;8.27;100.00;101727.59;4379306;32;20065;-75
2021/11/17 13:47:55;;;;;;;3.80;3.67;;;;;;;8.23;100.00;101731.19;4380937;32;20068;-76
2021/11/17 13:50:22;;;;;;;4.20;4.00;;;;;;;8.15;100.00;101733.16;4373551;32;20147;-74
2021/11/17 13:52:48;;;;;;;3.87;3.67;;;;;;;7.86;100.00;101692.03;4401604;32;20089;-74
2021/11/17 13:55:20;;;;;;;6.53;6.15;;;;;;;7.96;100.00;101712.72;4373828;32;20136;-76
2021/11/17 13:57:46;;;;;;;3.47;3.37;;;;;;;8.20;100.00;101744.38;4364072;32;20608;-74
2021/11/17 14:00:12;;;;;;;5.28;5.03;;;;;;;8.24;100.00;101746.00;4369278;32;20093;-75
2021/11/17 14:02:38;;;;;;;3.67;3.58;;;;;;;8.20;100.00;101749.59;4377127;32;20198;-76
2021/11/17 14:05:04;;;;;;;5.55;5.32;;;;;;;7.88;100.00;101685.06;4412039;32;20192;-76
2021/11/17 14:07:32;;;;;;;3.65;3.55;;;;;;;7.71;100.00;101673.25;4379242;32;20165;-74
2021/11/17 14:09:57;;;;;;;4.25;4.05;;;;;;;8.15;100.00;101756.69;4390177;32;20109;-76
2021/11/17 14:12:22;;;;;;;3.60;3.50;;;;;;;8.16;100.00;101753.19;4383879;32;20079;-74
2021/11/17 14:14:48;;;;;;;4.00;3.85;;;;;;;8.16;100.00;101758.41;4367197;32;20127;-76
2021/11/17 14:17:13;;;;;;;4.97;4.75;;;;;;;8.25;100.00;101747.72;4380788;32;20069;-74
2021/11/17 14:19:38;;;;;;;3.83;3.62;;;;;;;8.33;100.00;101747.50;4365896;32;20458;-75
2021/11/17 14:22:04;;;;;;;5.40;5.20;;;;;;;8.39;100.00;101744.72;4385045;32;20083;-74
2021/11/17 14:24:29;;;;;;;4.00;3.80;;;;;;;8.38;100.00;101754.34;4382765;32;20073;-75
2021/11/17 14:26:55;;;;;;;4.25;4.05;;;;;;;8.33;100.00;101745.75;4385486;32;20579;-74
2021/11/17 14:29:28;;;;;;;4.07;3.87;;;;;;;8.38;100.00;101753.50;4384052;32;20345;-75
2021/11/17 14:31:57;;;;;;;3.65;3.53;;;;;;;8.42;100.00;101756.91;4384422;32;20133;-76